sensor_id;sensor_type;location;lat;lon;timestamp;temperature;humidity
12959;DHT22;6544;51.666;6.634;2023-04-01T00:01:30;10.60;99.90
12959;DHT22;6544;51.666;6.634;2023-04-01T00:03:57;10.50;99.90
12959;DHT22;6544;51.666;6.634;2023-04-01T00:06:24;10.60;99.90
12959;DHT22;6544;51.666;6.634;2023-04-01T00:08:53;10.50;99.90
12959;DHT22;6544;51.666;6.634;2023-04-01T00:11:19;10.60;99.90
12959;DHT22;6544;51.666;6.634;2023-04-01T00:13:47;10.60;99.90
12959;DHT22;6544;51.666;6.634;2023-04-01T00:16:14;10.50;99.90
12959;DHT22;6544;51.666;6.634;2023-04-01T00:18:41;10.50;99.90
12959;DHT22;6544;51.666;6.634;2023-04-01T00:21:08;10.50;99.90
12959;DHT22;6544;51.666;6.634;2023-04-01T00:23:35;10.50;99.90
12959;DHT22;6544;51.666;6.634;2023-04-01T00:26:03;10.50;99.90
12959;DHT22;6544;51.666;6.634;2023-04-01T00:28:30;10.50;99.90
12959;DHT22;6544;51.666;6.634;2023-04-01T00:30:57;10.40;99.90
12959;DHT22;6544;51.666;6.634;2023-04-01T00:33:24;10.40;99.90
12959;DHT22;6544;51.666;6.634;2023-04-01T00:35:53;10.40;99.90
12959;DHT22;6544;51.666;6.634;2023-04-01T00:38:19;10.40;99.90
12959;DHT22;6544;51.666;6.634;2023-04-01T00:40:47;10.40;99.90
12959;DHT22;6544;51.666;6.634;2023-04-01T00:43:17;10.40;99.90
12959;DHT22;6544;51.666;6.634;2023-04-01T00:45:46;10.40;99.90
12959;DHT22;6544;51.666;6.634;2023-04-01T00:48:16;10.40;99.90
12959;DHT22;6544;51.666;6.634;2023-04-01T00:50:47;10.40;99.90
12959;DHT22;6544;51.666;6.634;2023-04-01T00:53:16;10.30;99.90
12959;DHT22;6544;51.666;6.634;2023-04-01T00:55:48;10.30;99.90
12959;DHT22;6544;51.666;6.634;2023-04-01T00:58:21;10.30;99.90
12959;DHT22;6544;51.666;6.634;2023-04-01T01:00:50;10.30;99.90
12959;DHT22;6544;51.666;6.634;2023-04-01T01:03:17;10.30;99.90
12959;DHT22;6544;51.666;6.634;2023-04-01T01:05:58;10.30;99.90
12959;DHT22;6544;51.666;6.634;2023-04-01T01:08:35;10.30;99.90
12959;DHT22;6544;51.666;6.634;2023-04-01T01:11:05;10.40;99.90
12959;DHT22;6544;51.666;6.634;2023-04-01T01:13:42;10.30;99.90
12959;DHT22;6544;51.666;6.634;2023-04-01T01:16:15;10.30;99.90
12959;DHT22;6544;51.666;6.634;2023-04-01T01:18:50;10.30;99.90
12959;DHT22;6544;51.666;6.634;2023-04-01T01:21:45;10.20;99.90
12959;DHT22;6544;51.666;6.634;2023-04-01T01:24:25;10.20;99.90
12959;DHT22;6544;51.666;6.634;2023-04-01T01:27:02;10.20;99.90
12959;DHT22;6544;51.666;6.634;2023-04-01T01:32:50;10.20;99.90
12959;DHT22;6544;51.666;6.634;2023-04-01T01:35:23;10.20;99.90
12959;DHT22;6544;51.666;6.634;2023-04-01T01:37:55;10.20;99.90
12959;DHT22;6544;51.666;6.634;2023-04-01T01:40:24;10.20;99.90
12959;DHT22;6544;51.666;6.634;2023-04-01T01:42:54;10.20;99.90
12959;DHT22;6544;51.666;6.634;2023-04-01T01:45:26;10.20;99.90
12959;DHT22;6544;51.666;6.634;2023-04-01T01:47:54;10.10;99.90
12959;DHT22;6544;51.666;6.634;2023-04-01T01:50:24;10.20;99.90
12959;DHT22;6544;51.666;6.634;2023-04-01T01:53:00;10.20;99.90
12959;DHT22;6544;51.666;6.634;2023-04-01T01:55:30;10.20;99.90
12959;DHT22;6544;51.666;6.634;2023-04-01T01:58:00;10.20;99.90
12959;DHT22;6544;51.666;6.634;2023-04-01T02:00:29;10.20;99.90
12959;DHT22;6544;51.666;6.634;2023-04-01T02:02:57;10.20;99.90
12959;DHT22;6544;51.666;6.634;2023-04-01T02:05:27;10.20;99.90
12959;DHT22;6544;51.666;6.634;2023-04-01T02:08:00;10.20;99.90
12959;DHT22;6544;51.666;6.634;2023-04-01T02:10:29;10.20;99.90
12959;DHT22;6544;51.666;6.634;2023-04-01T02:13:00;10.20;99.90
12959;DHT22;6544;51.666;6.634;2023-04-01T02:15:31;10.20;99.90
12959;DHT22;6544;51.666;6.634;2023-04-01T02:18:00;10.20;99.90
12959;DHT22;6544;51.666;6.634;2023-04-01T02:20:29;10.20;99.90
12959;DHT22;6544;51.666;6.634;2023-04-01T02:22:58;10.20;99.90
12959;DHT22;6544;51.666;6.634;2023-04-01T02:25:28;10.30;99.90
12959;DHT22;6544;51.666;6.634;2023-04-01T02:27:57;10.30;99.90
12959;DHT22;6544;51.666;6.634;2023-04-01T02:30:27;10.30;99.90
12959;DHT22;6544;51.666;6.634;2023-04-01T02:32:55;10.40;99.90
12959;DHT22;6544;51.666;6.634;2023-04-01T02:35:22;10.30;99.90
12959;DHT22;6544;51.666;6.634;2023-04-01T02:37:53;10.30;99.90
12959;DHT22;6544;51.666;6.634;2023-04-01T02:40:20;10.40;99.90
12959;DHT22;6544;51.666;6.634;2023-04-01T02:42:47;10.40;99.90
12959;DHT22;6544;51.666;6.634;2023-04-01T02:45:14;10.30;99.90
12959;DHT22;6544;51.666;6.634;2023-04-01T02:47:41;10.40;99.90
12959;DHT22;6544;51.666;6.634;2023-04-01T02:50:09;10.40;99.90
12959;DHT22;6544;51.666;6.634;2023-04-01T02:52:36;10.40;99.90
12959;DHT22;6544;51.666;6.634;2023-04-01T02:55:05;10.40;99.90
12959;DHT22;6544;51.666;6.634;2023-04-01T02:57:32;10.40;99.90
12959;DHT22;6544;51.666;6.634;2023-04-01T02:59:59;10.40;99.90
12959;DHT22;6544;51.666;6.634;2023-04-01T03:02:26;10.40;99.90
12959;DHT22;6544;51.666;6.634;2023-04-01T03:04:52;10.40;99.90
12959;DHT22;6544;51.666;6.634;2023-04-01T03:07:19;10.40;99.90
12959;DHT22;6544;51.666;6.634;2023-04-01T03:09:46;10.40;99.90
12959;DHT22;6544;51.666;6.634;2023-04-01T03:12:14;10.40;99.90
12959;DHT22;6544;51.666;6.634;2023-04-01T03:14:41;10.40;99.90
12959;DHT22;6544;51.666;6.634;2023-04-01T03:17:08;10.30;99.90
12959;DHT22;6544;51.666;6.634;2023-04-01T03:19:35;10.30;99.90
12959;DHT22;6544;51.666;6.634;2023-04-01T03:22:02;10.30;99.90
12959;DHT22;6544;51.666;6.634;2023-04-01T03:24:29;10.30;99.90
12959;DHT22;6544;51.666;6.634;2023-04-01T03:26:55;10.30;99.90
12959;DHT22;6544;51.666;6.634;2023-04-01T03:29:24;10.30;99.90
12959;DHT22;6544;51.666;6.634;2023-04-01T03:31:51;10.30;99.90
12959;DHT22;6544;51.666;6.634;2023-04-01T03:34:17;10.30;99.90
12959;DHT22;6544;51.666;6.634;2023-04-01T03:36:44;10.40;99.90
12959;DHT22;6544;51.666;6.634;2023-04-01T03:39:11;10.40;99.90
12959;DHT22;6544;51.666;6.634;2023-04-01T03:41:38;10.30;99.90
12959;DHT22;6544;51.666;6.634;2023-04-01T03:44:05;10.40;99.90
12959;DHT22;6544;51.666;6.634;2023-04-01T03:46:34;10.40;99.90
12959;DHT22;6544;51.666;6.634;2023-04-01T03:49:01;10.40;99.90
12959;DHT22;6544;51.666;6.634;2023-04-01T03:51:28;10.40;99.90
12959;DHT22;6544;51.666;6.634;2023-04-01T03:53:54;10.40;99.90
12959;DHT22;6544;51.666;6.634;2023-04-01T03:56:21;10.40;99.90
12959;DHT22;6544;51.666;6.634;2023-04-01T03:58:48;10.40;99.90
12959;DHT22;6544;51.666;6.634;2023-04-01T04:01:19;10.40;99.90
12959;DHT22;6544;51.666;6.634;2023-04-01T04:03:48;10.40;99.90
12959;DHT22;6544;51.666;6.634;2023-04-01T04:06:16;10.50;99.90
12959;DHT22;6544;51.666;6.634;2023-04-01T04:08:43;10.50;99.90
12959;DHT22;6544;51.666;6.634;2023-04-01T04:11:10;10.50;99.90
12959;DHT22;6544;51.666;6.634;2023-04-01T04:13:37;10.50;99.90
12959;DHT22;6544;51.666;6.634;2023-04-01T04:16:05;10.40;99.90
12959;DHT22;6544;51.666;6.634;2023-04-01T04:18:32;10.60;99.90
12959;DHT22;6544;51.666;6.634;2023-04-01T04:21:00;10.60;99.90
12959;DHT22;6544;51.666;6.634;2023-04-01T04:23:27;10.60;99.90
12959;DHT22;6544;51.666;6.634;2023-04-01T04:25:56;10.50;99.90
12959;DHT22;6544;51.666;6.634;2023-04-01T04:28:23;10.50;99.90
12959;DHT22;6544;51.666;6.634;2023-04-01T04:30:50;10.50;99.90
12959;DHT22;6544;51.666;6.634;2023-04-01T04:33:18;10.50;99.90
12959;DHT22;6544;51.666;6.634;2023-04-01T04:35:44;10.40;99.90
12959;DHT22;6544;51.666;6.634;2023-04-01T04:38:13;10.40;99.90
12959;DHT22;6544;51.666;6.634;2023-04-01T04:40:41;10.40;99.90
12959;DHT22;6544;51.666;6.634;2023-04-01T04:43:10;10.40;99.90
12959;DHT22;6544;51.666;6.634;2023-04-01T04:45:37;10.50;99.90
12959;DHT22;6544;51.666;6.634;2023-04-01T04:48:05;10.50;99.90
12959;DHT22;6544;51.666;6.634;2023-04-01T04:50:33;10.40;99.90
12959;DHT22;6544;51.666;6.634;2023-04-01T04:53:00;10.40;99.90
12959;DHT22;6544;51.666;6.634;2023-04-01T04:55:28;10.40;99.90
12959;DHT22;6544;51.666;6.634;2023-04-01T04:57:55;10.40;99.90
12959;DHT22;6544;51.666;6.634;2023-04-01T05:00:22;10.40;99.90
12959;DHT22;6544;51.666;6.634;2023-04-01T05:02:48;10.40;99.90
12959;DHT22;6544;51.666;6.634;2023-04-01T05:05:15;10.40;99.90
12959;DHT22;6544;51.666;6.634;2023-04-01T05:07:42;10.40;99.90
12959;DHT22;6544;51.666;6.634;2023-04-01T05:10:09;10.40;99.90
12959;DHT22;6544;51.666;6.634;2023-04-01T05:12:38;10.40;99.90
12959;DHT22;6544;51.666;6.634;2023-04-01T05:15:05;10.40;99.90
12959;DHT22;6544;51.666;6.634;2023-04-01T05:17:32;10.50;99.90
12959;DHT22;6544;51.666;6.634;2023-04-01T05:19:59;10.50;99.90
12959;DHT22;6544;51.666;6.634;2023-04-01T05:22:26;10.50;99.90
12959;DHT22;6544;51.666;6.634;2023-04-01T05:24:53;10.40;99.90
12959;DHT22;6544;51.666;6.634;2023-04-01T05:27:21;10.40;99.90
12959;DHT22;6544;51.666;6.634;2023-04-01T05:29:49;10.40;99.90
12959;DHT22;6544;51.666;6.634;2023-04-01T05:32:16;10.40;99.90
12959;DHT22;6544;51.666;6.634;2023-04-01T05:34:43;10.40;99.90
12959;DHT22;6544;51.666;6.634;2023-04-01T05:37:10;10.30;99.90
12959;DHT22;6544;51.666;6.634;2023-04-01T05:39:37;10.40;99.90
12959;DHT22;6544;51.666;6.634;2023-04-01T05:42:08;10.30;99.90
12959;DHT22;6544;51.666;6.634;2023-04-01T05:44:35;10.30;99.90
12959;DHT22;6544;51.666;6.634;2023-04-01T05:47:04;10.30;99.90
12959;DHT22;6544;51.666;6.634;2023-04-01T05:49:32;10.30;99.90
12959;DHT22;6544;51.666;6.634;2023-04-01T05:51:59;10.30;99.90
12959;DHT22;6544;51.666;6.634;2023-04-01T05:54:26;10.30;99.90
12959;DHT22;6544;51.666;6.634;2023-04-01T05:56:53;10.30;99.90
12959;DHT22;6544;51.666;6.634;2023-04-01T05:59:20;10.40;99.90
12959;DHT22;6544;51.666;6.634;2023-04-01T06:01:47;10.30;99.90
12959;DHT22;6544;51.666;6.634;2023-04-01T06:04:16;10.30;99.90
12959;DHT22;6544;51.666;6.634;2023-04-01T06:06:44;10.40;99.90
12959;DHT22;6544;51.666;6.634;2023-04-01T06:09:14;10.40;99.90
12959;DHT22;6544;51.666;6.634;2023-04-01T06:12:07;10.40;99.90
12959;DHT22;6544;51.666;6.634;2023-04-01T06:14:44;10.40;99.90
12959;DHT22;6544;51.666;6.634;2023-04-01T06:17:26;10.30;99.90
12959;DHT22;6544;51.666;6.634;2023-04-01T06:20:03;10.30;99.90
12959;DHT22;6544;51.666;6.634;2023-04-01T06:22:58;10.30;99.90
12959;DHT22;6544;51.666;6.634;2023-04-01T06:25:44;10.30;99.90
12959;DHT22;6544;51.666;6.634;2023-04-01T06:28:41;10.40;99.90
12959;DHT22;6544;51.666;6.634;2023-04-01T06:31:25;10.40;99.90
12959;DHT22;6544;51.666;6.634;2023-04-01T06:34:02;10.30;99.90
12959;DHT22;6544;51.666;6.634;2023-04-01T06:36:46;10.20;99.90
12959;DHT22;6544;51.666;6.634;2023-04-01T06:39:37;10.20;99.90
12959;DHT22;6544;51.666;6.634;2023-04-01T06:42:43;10.20;99.90
12959;DHT22;6544;51.666;6.634;2023-04-01T06:45:23;10.10;99.90
12959;DHT22;6544;51.666;6.634;2023-04-01T06:48:16;10.20;99.90
12959;DHT22;6544;51.666;6.634;2023-04-01T06:50:51;10.20;99.90
12959;DHT22;6544;51.666;6.634;2023-04-01T06:53:29;10.30;99.90
12959;DHT22;6544;51.666;6.634;2023-04-01T06:56:01;10.30;99.90
12959;DHT22;6544;51.666;6.634;2023-04-01T06:58:35;10.30;99.90
12959;DHT22;6544;51.666;6.634;2023-04-01T07:01:07;10.40;99.90
12959;DHT22;6544;51.666;6.634;2023-04-01T07:03:38;10.30;99.90
12959;DHT22;6544;51.666;6.634;2023-04-01T07:06:10;10.30;99.90
12959;DHT22;6544;51.666;6.634;2023-04-01T07:08:43;10.30;99.90
12959;DHT22;6544;51.666;6.634;2023-04-01T07:11:14;10.30;99.90
12959;DHT22;6544;51.666;6.634;2023-04-01T07:13:46;10.30;99.90
12959;DHT22;6544;51.666;6.634;2023-04-01T07:16:18;10.30;99.90
12959;DHT22;6544;51.666;6.634;2023-04-01T07:18:49;10.30;99.90
12959;DHT22;6544;51.666;6.634;2023-04-01T07:21:23;10.20;99.90
12959;DHT22;6544;51.666;6.634;2023-04-01T07:23:56;10.20;99.90
12959;DHT22;6544;51.666;6.634;2023-04-01T07:26:25;10.20;99.90
12959;DHT22;6544;51.666;6.634;2023-04-01T07:28:53;10.20;99.90
12959;DHT22;6544;51.666;6.634;2023-04-01T07:31:30;10.20;99.90
12959;DHT22;6544;51.666;6.634;2023-04-01T07:34:03;10.30;99.90
12959;DHT22;6544;51.666;6.634;2023-04-01T07:36:35;10.30;99.90
12959;DHT22;6544;51.666;6.634;2023-04-01T07:39:14;10.20;99.90
12959;DHT22;6544;51.666;6.634;2023-04-01T07:41:51;10.30;99.90
12959;DHT22;6544;51.666;6.634;2023-04-01T07:44:25;10.40;99.90
12959;DHT22;6544;51.666;6.634;2023-04-01T07:47:15;10.40;99.90
12959;DHT22;6544;51.666;6.634;2023-04-01T07:49:54;10.40;99.90
12959;DHT22;6544;51.666;6.634;2023-04-01T07:52:32;10.40;99.90
12959;DHT22;6544;51.666;6.634;2023-04-01T07:55:08;10.40;99.90
12959;DHT22;6544;51.666;6.634;2023-04-01T07:57:43;10.40;99.90
12959;DHT22;6544;51.666;6.634;2023-04-01T08:00:16;10.30;99.90
12959;DHT22;6544;51.666;6.634;2023-04-01T08:03:02;10.30;99.90
12959;DHT22;6544;51.666;6.634;2023-04-01T08:05:39;10.40;99.90
12959;DHT22;6544;51.666;6.634;2023-04-01T08:08:13;10.40;99.90
12959;DHT22;6544;51.666;6.634;2023-04-01T08:10:48;10.40;99.90
12959;DHT22;6544;51.666;6.634;2023-04-01T08:13:23;10.50;99.90
12959;DHT22;6544;51.666;6.634;2023-04-01T08:15:57;10.50;99.90
12959;DHT22;6544;51.666;6.634;2023-04-01T08:18:35;10.50;99.90
12959;DHT22;6544;51.666;6.634;2023-04-01T08:21:10;10.50;99.90
12959;DHT22;6544;51.666;6.634;2023-04-01T08:23:40;10.50;99.90
12959;DHT22;6544;51.666;6.634;2023-04-01T08:26:16;10.50;99.90
12959;DHT22;6544;51.666;6.634;2023-04-01T08:28:50;10.50;99.90
12959;DHT22;6544;51.666;6.634;2023-04-01T08:31:22;10.60;99.90
12959;DHT22;6544;51.666;6.634;2023-04-01T08:33:53;10.60;99.90
12959;DHT22;6544;51.666;6.634;2023-04-01T08:36:23;10.60;99.90
12959;DHT22;6544;51.666;6.634;2023-04-01T08:38:54;10.60;99.90
12959;DHT22;6544;51.666;6.634;2023-04-01T08:42:00;10.60;99.90
12959;DHT22;6544;51.666;6.634;2023-04-01T08:50:55;10.60;99.90
12959;DHT22;6544;51.666;6.634;2023-04-01T08:56:20;10.70;99.90
12959;DHT22;6544;51.666;6.634;2023-04-01T08:58:59;10.70;99.90
12959;DHT22;6544;51.666;6.634;2023-04-01T09:01:58;10.70;99.90
12959;DHT22;6544;51.666;6.634;2023-04-01T09:04:43;10.70;99.90
12959;DHT22;6544;51.666;6.634;2023-04-01T09:07:37;10.80;99.90
12959;DHT22;6544;51.666;6.634;2023-04-01T09:10:29;10.80;99.90
12959;DHT22;6544;51.666;6.634;2023-04-01T09:13:23;10.90;99.90
12959;DHT22;6544;51.666;6.634;2023-04-01T09:16:18;10.90;99.90
12959;DHT22;6544;51.666;6.634;2023-04-01T09:19:21;10.90;99.90
12959;DHT22;6544;51.666;6.634;2023-04-01T09:22:01;11.00;99.90
12959;DHT22;6544;51.666;6.634;2023-04-01T09:24:44;10.90;99.90
12959;DHT22;6544;51.666;6.634;2023-04-01T09:27:26;11.00;99.90
12959;DHT22;6544;51.666;6.634;2023-04-01T09:33:29;11.10;99.90
12959;DHT22;6544;51.666;6.634;2023-04-01T09:36:21;11.10;99.90
12959;DHT22;6544;51.666;6.634;2023-04-01T09:38:57;11.10;99.90
12959;DHT22;6544;51.666;6.634;2023-04-01T09:41:31;11.20;99.90
12959;DHT22;6544;51.666;6.634;2023-04-01T09:44:02;11.10;99.90
12959;DHT22;6544;51.666;6.634;2023-04-01T09:46:42;11.00;99.90
12959;DHT22;6544;51.666;6.634;2023-04-01T09:52:20;10.90;99.90
12959;DHT22;6544;51.666;6.634;2023-04-01T09:54:59;11.00;99.90
12959;DHT22;6544;51.666;6.634;2023-04-01T09:58:01;11.00;99.90
12959;DHT22;6544;51.666;6.634;2023-04-01T10:00:46;11.00;99.90
12959;DHT22;6544;51.666;6.634;2023-04-01T10:03:48;10.90;99.90
12959;DHT22;6544;51.666;6.634;2023-04-01T10:09:42;10.90;99.90
12959;DHT22;6544;51.666;6.634;2023-04-01T10:12:31;10.90;99.90
12959;DHT22;6544;51.666;6.634;2023-04-01T10:21:37;10.90;99.90
12959;DHT22;6544;51.666;6.634;2023-04-01T10:24:29;11.00;99.90
12959;DHT22;6544;51.666;6.634;2023-04-01T10:27:21;11.00;99.90
12959;DHT22;6544;51.666;6.634;2023-04-01T10:30:13;10.90;99.90
12959;DHT22;6544;51.666;6.634;2023-04-01T10:36:17;11.10;99.90
12959;DHT22;6544;51.666;6.634;2023-04-01T10:39:20;11.10;99.90
12959;DHT22;6544;51.666;6.634;2023-04-01T10:45:24;11.10;99.90
12959;DHT22;6544;51.666;6.634;2023-04-01T10:48:23;11.10;99.90
12959;DHT22;6544;51.666;6.634;2023-04-01T10:51:18;11.10;99.90
12959;DHT22;6544;51.666;6.634;2023-04-01T10:56:51;11.10;99.90
12959;DHT22;6544;51.666;6.634;2023-04-01T10:59:57;11.10;99.90
12959;DHT22;6544;51.666;6.634;2023-04-01T11:03:04;11.10;99.90
12959;DHT22;6544;51.666;6.634;2023-04-01T11:05:59;11.00;99.90
12959;DHT22;6544;51.666;6.634;2023-04-01T11:09:15;11.00;99.90
12959;DHT22;6544;51.666;6.634;2023-04-01T11:21:43;10.90;99.90
12959;DHT22;6544;51.666;6.634;2023-04-01T11:25:01;11.00;99.90
12959;DHT22;6544;51.666;6.634;2023-04-01T11:27:54;11.10;99.90
12959;DHT22;6544;51.666;6.634;2023-04-01T11:30:49;11.00;99.90
12959;DHT22;6544;51.666;6.634;2023-04-01T11:33:22;11.10;99.90
12959;DHT22;6544;51.666;6.634;2023-04-01T11:36:00;10.80;99.90
12959;DHT22;6544;51.666;6.634;2023-04-01T11:38:56;10.80;99.90
12959;DHT22;6544;51.666;6.634;2023-04-01T11:41:35;10.80;99.90
12959;DHT22;6544;51.666;6.634;2023-04-01T11:44:15;10.80;99.90
12959;DHT22;6544;51.666;6.634;2023-04-01T11:46:52;10.70;99.90
12959;DHT22;6544;51.666;6.634;2023-04-01T11:49:40;10.80;99.90
12959;DHT22;6544;51.666;6.634;2023-04-01T11:52:35;10.80;99.90
12959;DHT22;6544;51.666;6.634;2023-04-01T11:55:23;11.00;99.90
12959;DHT22;6544;51.666;6.634;2023-04-01T11:58:18;11.00;99.90
12959;DHT22;6544;51.666;6.634;2023-04-01T12:01:03;10.90;99.90
12959;DHT22;6544;51.666;6.634;2023-04-01T12:04:01;10.80;99.90
12959;DHT22;6544;51.666;6.634;2023-04-01T12:06:57;10.90;99.90
12959;DHT22;6544;51.666;6.634;2023-04-01T12:10:02;10.90;99.90
12959;DHT22;6544;51.666;6.634;2023-04-01T12:12:58;11.00;99.90
12959;DHT22;6544;51.666;6.634;2023-04-01T12:18:57;10.90;99.90
12959;DHT22;6544;51.666;6.634;2023-04-01T12:21:37;10.70;99.90
12959;DHT22;6544;51.666;6.634;2023-04-01T12:30:53;10.90;99.90
12959;DHT22;6544;51.666;6.634;2023-04-01T12:42:35;10.90;99.90
12959;DHT22;6544;51.666;6.634;2023-04-01T12:45:16;10.90;99.90
12959;DHT22;6544;51.666;6.634;2023-04-01T12:48:02;11.00;99.90
12959;DHT22;6544;51.666;6.634;2023-04-01T12:50:53;10.90;99.90
12959;DHT22;6544;51.666;6.634;2023-04-01T12:53:37;10.90;99.90
12959;DHT22;6544;51.666;6.634;2023-04-01T12:56:14;10.90;99.90
12959;DHT22;6544;51.666;6.634;2023-04-01T12:59:06;10.90;99.90
12959;DHT22;6544;51.666;6.634;2023-04-01T13:05:12;10.90;99.90
12959;DHT22;6544;51.666;6.634;2023-04-01T13:08:07;10.90;99.90
12959;DHT22;6544;51.666;6.634;2023-04-01T13:11:00;10.90;99.90
12959;DHT22;6544;51.666;6.634;2023-04-01T13:13:58;11.00;99.90
12959;DHT22;6544;51.666;6.634;2023-04-01T13:16:31;11.00;99.90
12959;DHT22;6544;51.666;6.634;2023-04-01T13:19:07;11.00;99.90
12959;DHT22;6544;51.666;6.634;2023-04-01T13:22:01;11.00;99.90
12959;DHT22;6544;51.666;6.634;2023-04-01T13:24:41;11.20;99.90
12959;DHT22;6544;51.666;6.634;2023-04-01T13:27:14;11.20;99.90
12959;DHT22;6544;51.666;6.634;2023-04-01T13:29:51;11.20;99.90
12959;DHT22;6544;51.666;6.634;2023-04-01T13:32:28;11.20;99.90
12959;DHT22;6544;51.666;6.634;2023-04-01T13:35:08;11.20;99.90
12959;DHT22;6544;51.666;6.634;2023-04-01T13:37:51;11.30;99.90
12959;DHT22;6544;51.666;6.634;2023-04-01T13:40:39;11.40;99.90
12959;DHT22;6544;51.666;6.634;2023-04-01T13:43:13;11.20;99.90
12959;DHT22;6544;51.666;6.634;2023-04-01T13:45:56;11.10;99.90
12959;DHT22;6544;51.666;6.634;2023-04-01T13:48:46;11.10;99.90
12959;DHT22;6544;51.666;6.634;2023-04-01T13:51:45;11.30;99.90
12959;DHT22;6544;51.666;6.634;2023-04-01T13:57:21;11.20;99.90
12959;DHT22;6544;51.666;6.634;2023-04-01T14:02:51;11.10;99.90
12959;DHT22;6544;51.666;6.634;2023-04-01T14:05:47;11.20;99.90
12959;DHT22;6544;51.666;6.634;2023-04-01T14:08:33;11.40;99.90
12959;DHT22;6544;51.666;6.634;2023-04-01T14:11:13;11.40;99.90
12959;DHT22;6544;51.666;6.634;2023-04-01T14:13:50;11.40;99.90
12959;DHT22;6544;51.666;6.634;2023-04-01T14:16:53;11.50;99.90
12959;DHT22;6544;51.666;6.634;2023-04-01T14:19:35;11.50;99.90
12959;DHT22;6544;51.666;6.634;2023-04-01T14:22:13;11.40;99.90
12959;DHT22;6544;51.666;6.634;2023-04-01T14:27:54;11.40;99.90
12959;DHT22;6544;51.666;6.634;2023-04-01T14:30:36;11.50;99.90
12959;DHT22;6544;51.666;6.634;2023-04-01T14:33:16;11.40;99.90
12959;DHT22;6544;51.666;6.634;2023-04-01T14:35:57;11.60;99.90
12959;DHT22;6544;51.666;6.634;2023-04-01T14:38:42;11.60;99.90
12959;DHT22;6544;51.666;6.634;2023-04-01T14:41:20;11.70;99.90
12959;DHT22;6544;51.666;6.634;2023-04-01T14:44:18;11.50;99.90
12959;DHT22;6544;51.666;6.634;2023-04-01T14:47:11;11.60;99.90
12959;DHT22;6544;51.666;6.634;2023-04-01T14:49:42;11.60;99.90
12959;DHT22;6544;51.666;6.634;2023-04-01T14:52:14;11.60;99.90
12959;DHT22;6544;51.666;6.634;2023-04-01T14:54:44;11.60;99.90
12959;DHT22;6544;51.666;6.634;2023-04-01T14:57:14;11.30;99.90
12959;DHT22;6544;51.666;6.634;2023-04-01T14:59:47;11.10;99.90
12959;DHT22;6544;51.666;6.634;2023-04-01T15:05:32;11.00;99.90
12959;DHT22;6544;51.666;6.634;2023-04-01T15:08:09;11.00;99.90
12959;DHT22;6544;51.666;6.634;2023-04-01T15:10:53;11.10;99.90
12959;DHT22;6544;51.666;6.634;2023-04-01T15:13:42;11.00;99.90
12959;DHT22;6544;51.666;6.634;2023-04-01T15:16:19;11.00;99.90
12959;DHT22;6544;51.666;6.634;2023-04-01T15:18:56;10.80;99.90
12959;DHT22;6544;51.666;6.634;2023-04-01T15:21:40;10.70;99.90
12959;DHT22;6544;51.666;6.634;2023-04-01T15:24:16;10.70;99.90
12959;DHT22;6544;51.666;6.634;2023-04-01T15:27:10;10.60;99.90
12959;DHT22;6544;51.666;6.634;2023-04-01T15:30:07;10.70;99.90
12959;DHT22;6544;51.666;6.634;2023-04-01T15:32:50;10.80;99.90
12959;DHT22;6544;51.666;6.634;2023-04-01T15:35:30;11.00;99.90
12959;DHT22;6544;51.666;6.634;2023-04-01T15:38:06;10.80;99.90
12959;DHT22;6544;51.666;6.634;2023-04-01T15:40:43;10.90;99.90
12959;DHT22;6544;51.666;6.634;2023-04-01T15:43:21;10.90;99.90
12959;DHT22;6544;51.666;6.634;2023-04-01T15:45:58;10.80;99.90
12959;DHT22;6544;51.666;6.634;2023-04-01T15:48:44;10.80;99.90
12959;DHT22;6544;51.666;6.634;2023-04-01T15:51:45;10.90;99.90
12959;DHT22;6544;51.666;6.634;2023-04-01T15:54:36;11.00;99.90
12959;DHT22;6544;51.666;6.634;2023-04-01T15:57:20;11.00;99.90
12959;DHT22;6544;51.666;6.634;2023-04-01T16:00:02;10.90;99.90
12959;DHT22;6544;51.666;6.634;2023-04-01T16:02:46;10.90;99.90
12959;DHT22;6544;51.666;6.634;2023-04-01T16:05:27;10.90;99.90
12959;DHT22;6544;51.666;6.634;2023-04-01T16:08:23;11.00;99.90
12959;DHT22;6544;51.666;6.634;2023-04-01T16:11:02;10.90;99.90
12959;DHT22;6544;51.666;6.634;2023-04-01T16:13:46;10.90;99.90
12959;DHT22;6544;51.666;6.634;2023-04-01T16:16:23;11.00;99.90
12959;DHT22;6544;51.666;6.634;2023-04-01T16:19:01;11.00;99.90
12959;DHT22;6544;51.666;6.634;2023-04-01T16:21:37;11.00;99.90
12959;DHT22;6544;51.666;6.634;2023-04-01T16:24:15;11.00;99.90
12959;DHT22;6544;51.666;6.634;2023-04-01T16:26:49;11.00;99.90
12959;DHT22;6544;51.666;6.634;2023-04-01T16:29:26;11.00;99.90
12959;DHT22;6544;51.666;6.634;2023-04-01T16:32:12;11.00;99.90
12959;DHT22;6544;51.666;6.634;2023-04-01T16:34:45;10.90;99.90
12959;DHT22;6544;51.666;6.634;2023-04-01T16:37:19;11.10;99.90
12959;DHT22;6544;51.666;6.634;2023-04-01T16:39:52;11.20;99.90
12959;DHT22;6544;51.666;6.634;2023-04-01T16:42:31;11.10;99.90
12959;DHT22;6544;51.666;6.634;2023-04-01T16:45:16;11.00;99.90
12959;DHT22;6544;51.666;6.634;2023-04-01T16:47:47;11.20;99.90
12959;DHT22;6544;51.666;6.634;2023-04-01T16:50:19;11.20;99.90
12959;DHT22;6544;51.666;6.634;2023-04-01T16:53:00;11.00;99.90
12959;DHT22;6544;51.666;6.634;2023-04-01T16:55:35;11.00;99.90
12959;DHT22;6544;51.666;6.634;2023-04-01T16:58:10;10.90;99.90
12959;DHT22;6544;51.666;6.634;2023-04-01T17:00:41;10.80;99.90
12959;DHT22;6544;51.666;6.634;2023-04-01T17:03:17;10.70;99.90
12959;DHT22;6544;51.666;6.634;2023-04-01T17:05:55;10.70;99.90
12959;DHT22;6544;51.666;6.634;2023-04-01T17:08:55;10.90;99.90
12959;DHT22;6544;51.666;6.634;2023-04-01T17:11:28;10.70;99.90
12959;DHT22;6544;51.666;6.634;2023-04-01T17:14:04;10.80;99.90
12959;DHT22;6544;51.666;6.634;2023-04-01T17:16:56;10.70;99.90
12959;DHT22;6544;51.666;6.634;2023-04-01T17:19:33;10.70;99.90
12959;DHT22;6544;51.666;6.634;2023-04-01T17:22:13;10.70;99.90
12959;DHT22;6544;51.666;6.634;2023-04-01T17:24:53;10.70;99.90
12959;DHT22;6544;51.666;6.634;2023-04-01T17:27:35;10.70;99.90
12959;DHT22;6544;51.666;6.634;2023-04-01T17:30:22;10.80;99.90
12959;DHT22;6544;51.666;6.634;2023-04-01T17:33:08;10.80;99.90
12959;DHT22;6544;51.666;6.634;2023-04-01T17:35:40;10.80;99.90
12959;DHT22;6544;51.666;6.634;2023-04-01T17:38:20;10.90;99.90
12959;DHT22;6544;51.666;6.634;2023-04-01T17:40:57;10.90;99.90
12959;DHT22;6544;51.666;6.634;2023-04-01T17:43:36;10.90;99.90
12959;DHT22;6544;51.666;6.634;2023-04-01T17:46:19;10.90;99.90
12959;DHT22;6544;51.666;6.634;2023-04-01T17:48:53;10.90;99.90
12959;DHT22;6544;51.666;6.634;2023-04-01T17:51:26;11.00;99.90
12959;DHT22;6544;51.666;6.634;2023-04-01T17:54:03;11.00;99.90
12959;DHT22;6544;51.666;6.634;2023-04-01T17:56:42;11.00;99.90
12959;DHT22;6544;51.666;6.634;2023-04-01T17:59:18;11.00;99.90
12959;DHT22;6544;51.666;6.634;2023-04-01T18:01:57;10.90;99.90
12959;DHT22;6544;51.666;6.634;2023-04-01T18:04:40;11.00;99.90
12959;DHT22;6544;51.666;6.634;2023-04-01T18:10:20;10.80;99.90
12959;DHT22;6544;51.666;6.634;2023-04-01T18:13:10;10.70;99.90